Time;durP1;ratioP1;P1;durP2;ratioP2;P2;SDS_P1;SDS_P2;PMS_P1;PMS_P2;Temp;Humidity;BMP_temperature;BMP_pressure;BME280_temperature;BME280_humidity;BME280_pressure;Samples;Min_cycle;Max_cycle;Signal;HPM_P1;HPM_P2
2022/08/15 08:17:20;;;;;;;;;;;;;;;20.28;63.48;100222.00;5141933;27;2610;-89
2022/08/15 08:49:43;;;;;;;;;;;;;;;20.33;63.63;100213.75;5105842;27;1879;-88
2022/08/15 09:07:11;;;;;;;;;;;;;;;20.37;63.83;100192.91;5083140;27;1336422;-87
2022/08/15 09:16:52;;;;;;;;;;;;;;;20.39;63.83;100180.56;5106722;27;1642287;-89
2022/08/15 09:20:19;;;;;;;;;;;;;;;20.41;63.81;100188.47;5063754;27;1289;-90
2022/08/15 09:42:52;;;;;;;;;;;;;;;20.47;63.66;100157.22;5118678;27;1362030;-88
2022/08/15 09:46:10;;;;;;;;;;;;;;;20.48;63.94;100153.38;5113960;27;1381409;-91
2022/08/15 10:54:05;;;;;;;;;;;;;;;20.76;64.33;100093.34;5091365;28;1468;-92
2022/08/15 10:56:35;;;;;;;;;;;;;;;20.77;64.29;100105.94;5087946;28;2230;-93
2022/08/15 10:59:02;;;;;;;;;;;;;;;20.78;64.28;100094.66;5069627;28;1514;-92
2022/08/15 11:02:41;;;;;;;;;;;;;;;20.80;64.15;100091.66;5047488;28;1652;-89
2022/08/15 11:05:09;;;;;;;;;;;;;;;20.82;64.43;100092.13;5040648;28;2393;-93
2022/08/15 11:32:12;;;;;;;;;;;;;;;20.97;64.88;100088.34;5095481;27;1420547;-90
2022/08/15 11:34:38;;;;;;;;;;;;;;;20.98;64.63;100079.03;5141606;27;1493;-92
2022/08/15 11:37:05;;;;;;;;;;;;;;;21.00;64.75;100074.03;5130429;27;2112;-90
2022/08/15 11:39:47;;;;;;;;;;;;;;;;;;;;;
2022/08/15 11:46:37;;;;;;;;;;;;;;;21.07;64.71;100090.91;5058433;27;2149462;-92
2022/08/15 11:49:03;;;;;;;;;;;;;;;21.08;64.75;100084.31;5101952;28;1522;-91
2022/08/15 11:56:55;;;;;;;;;;;;;;;21.12;64.87;100077.13;5045599;28;1565;-92
2022/08/15 11:59:49;;;;;;;;;;;;;;;21.13;65.13;100073.28;5137168;27;1389;-91
2022/08/15 12:02:17;;;;;;;;;;;;;;;21.15;64.82;100072.97;5123111;28;1810;-92
2022/08/15 12:04:48;;;;;;;;;;;;;;;21.17;65.15;100062.53;4950250;27;4450460;-91
2022/08/15 12:09:14;;;;;;;;;;;;;;;21.20;64.74;100068.19;5153646;27;1899;-91
2022/08/15 12:11:41;;;;;;;;;;;;;;;21.21;65.09;100058.88;5134706;27;1238;-91
2022/08/15 12:14:18;;;;;;;;;;;;;;;;;;;;;
2022/08/15 12:16:56;;;;;;;;;;;;;;;21.24;65.20;100061.03;5094089;27;1441255;-92
2022/08/15 12:19:44;;;;;;;;;;;;;;;21.25;65.11;100048.94;5076326;27;2541571;-94
2022/08/15 12:23:51;;;;;;;;;;;;;;;21.28;65.01;100050.28;5167126;27;1297;-91
2022/08/15 12:29:48;;;;;;;;;;;;;;;21.32;65.12;100045.78;5128986;27;1286;-90
2022/08/15 12:38:29;;;;;;;;;;;;;;;21.37;65.12;100048.47;5123686;27;1259;-90
2022/08/15 12:40:56;;;;;;;;;;;;;;;21.38;65.26;100050.09;5124899;28;1456;-92
2022/08/15 12:46:34;;;;;;;;;;;;;;;21.41;65.36;100033.03;5131824;27;1313;-93
2022/08/15 12:53:54;;;;;;;;;;;;;;;21.45;65.42;100028.59;5145586;27;1255;-95
2022/08/15 13:00:07;;;;;;;;;;;;;;;21.49;65.29;100012.34;5144163;27;1439;-92
2022/08/15 13:02:43;;;;;;;;;;;;;;;21.50;65.34;100016.72;5143515;28;1412;-93
2022/08/15 13:05:11;;;;;;;;;;;;;;;21.50;65.48;100014.81;5126841;28;1396;-93
2022/08/15 13:09:51;;;;;;;;;;;;;;;21.54;65.29;100012.25;5127142;27;1372;-91
2022/08/15 13:19:01;;;;;;;;;;;;;;;21.59;65.50;99997.63;5116961;27;1288;-92
2022/08/15 13:24:13;;;;;;;;;;;;;;;21.63;65.20;99995.91;5129004;28;1352;-90
2022/08/15 13:26:42;;;;;;;;;;;;;;;21.63;65.54;99996.72;5130224;28;1919;-90
2022/08/15 13:29:09;;;;;;;;;;;;;;;21.64;65.39;99992.84;5125585;28;1431;-91
2022/08/15 13:31:36;;;;;;;;;;;;;;;21.66;65.41;99990.63;5121941;28;1691;-90
2022/08/15 13:34:03;;;;;;;;;;;;;;;21.68;65.27;99985.66;5123597;28;1370;-92
2022/08/15 13:36:30;;;;;;;;;;;;;;;21.69;65.45;99981.78;5104085;28;1754;-90
2022/08/15 13:38:57;;;;;;;;;;;;;;;21.71;65.48;99982.31;5106552;28;1914;-90
2022/08/15 13:41:25;;;;;;;;;;;;;;;21.72;65.51;99980.38;5106166;28;1733;-90
2022/08/15 13:43:51;;;;;;;;;;;;;;;21.74;65.46;99975.41;5105438;28;1297;-89
2022/08/15 13:46:25;;;;;;;;;;;;;;;21.75;65.36;99972.34;5090981;27;1414421;-90
2022/08/15 13:48:51;;;;;;;;;;;;;;;21.77;65.41;99963.81;5094585;28;1203;-89
2022/08/15 14:07:26;;;;;;;;;;;;;;;21.85;65.58;99948.56;5070780;27;1362814;-90
2022/08/15 14:09:53;;;;;;;;;;;;;;;21.86;65.65;99944.72;5128009;28;2145;-91
2022/08/15 14:12:19;;;;;;;;;;;;;;;21.88;65.47;99934.22;5115154;28;2902;-92
2022/08/15 14:14:46;;;;;;;;;;;;;;;21.89;65.58;99950.38;5126985;28;1522;-90
2022/08/15 14:17:12;;;;;;;;;;;;;;;21.90;65.65;99932.00;5126825;27;1398;-90
2022/08/15 14:20:09;;;;;;;;;;;;;;;21.92;65.55;99943.47;5112206;27;2350;-90
2022/08/15 14:22:35;;;;;;;;;;;;;;;21.94;65.72;99949.44;5096221;28;1804;-90
2022/08/15 14:25:01;;;;;;;;;;;;;;;21.94;65.54;99944.78;5092914;28;1711;-90
2022/08/15 14:28:54;;;;;;;;;;;;;;;21.96;65.73;99948.00;5102313;27;1436287;-91
2022/08/15 14:33:51;;;;;;;;;;;;;;;21.99;65.64;99941.91;5086173;27;1414349;-91
2022/08/15 14:40:58;;;;;;;;;;;;;;;22.02;65.78;99945.97;5116686;27;1657;-90
2022/08/15 14:54:08;;;;;;;;;;;;;;;22.09;65.87;99931.81;5064676;27;2059450;-91
2022/08/15 14:56:35;;;;;;;;;;;;;;;22.11;65.70;99940.53;5125498;28;1130;-91
2022/08/15 14:59:03;;;;;;;;;;;;;;;22.11;65.86;99941.34;5139314;28;1970;-92
2022/08/15 15:01:30;;;;;;;;;;;;;;;22.12;65.61;99942.16;5128840;28;1188;-91
2022/08/15 15:04:01;;;;;;;;;;;;;;;22.14;65.69;99939.91;5142546;28;1467;-92
2022/08/15 15:29:49;;;;;;;;;;;;;;;22.25;66.13;99956.97;5067428;27;1867;-91
2022/08/15 15:32:18;;;;;;;;;;;;;;;22.25;66.01;99954.22;5058978;28;1478;-91
2022/08/15 15:37:17;;;;;;;;;;;;;;;22.26;66.21;99953.09;5098749;27;1580;-92
2022/08/15 15:39:44;;;;;;;;;;;;;;;22.27;66.10;99943.75;5094313;28;1938;-91
2022/08/15 15:42:10;;;;;;;;;;;;;;;22.29;66.15;99941.50;5109668;28;2700;-90
2022/08/15 15:45:19;;;;;;;;;;;;;;;22.28;66.18;99934.41;5140482;27;1696;-95
2022/08/15 15:49:19;;;;;;;;;;;;;;;22.28;66.16;99946.19;5101536;27;1295;-94
2022/08/15 15:51:46;;;;;;;;;;;;;;;22.29;66.19;99936.00;5100603;28;1420;-94
2022/08/15 15:54:22;;;;;;;;;;;;;;;;;;;;;
2022/08/15 15:56:53;;;;;;;;;;;;;;;22.31;66.11;99931.84;5143573;27;1209;-92
2022/08/15 15:59:20;;;;;;;;;;;;;;;22.31;66.37;99931.03;5145427;28;1467;-91
2022/08/15 16:01:47;;;;;;;;;;;;;;;22.32;66.30;99938.94;5140606;28;1808;-91
2022/08/15 16:04:13;;;;;;;;;;;;;;;22.67;65.60;99939.94;5142485;28;2168;-91
2022/08/15 16:06:40;;;;;;;;;;;;;;;22.53;66.32;99933.75;5137849;28;1715;-91
2022/08/15 16:19:28;;;;;;;;;;;;;;;22.43;66.88;99948.53;5119985;27;1788;-95
2022/08/15 16:21:54;;;;;;;;;;;;;;;22.43;66.77;99943.03;5107049;28;2595;-96
2022/08/15 16:24:21;;;;;;;;;;;;;;;22.44;66.97;99950.16;5119392;28;1333;-94
2022/08/15 16:33:16;;;;;;;;;;;;;;;22.47;67.13;99942.41;5142868;27;1642;-93
2022/08/15 16:39:45;;;;;;;;;;;;;;;22.49;67.22;99937.44;5112432;27;1520;-92
2022/08/15 16:42:12;;;;;;;;;;;;;;;22.50;66.97;99939.03;5104183;28;1534;-90
2022/08/15 16:44:38;;;;;;;;;;;;;;;22.50;67.09;99934.38;5104505;28;1271;-91
2022/08/15 16:47:05;;;;;;;;;;;;;;;22.51;67.27;99941.47;5113506;28;2229;-91
2022/08/15 16:49:31;;;;;;;;;;;;;;;22.52;66.95;99942.28;5114494;28;1367;-93
2022/08/15 16:54:40;;;;;;;;;;;;;;;22.52;66.93;99962.31;4856795;27;8794802;-92
2022/08/15 16:57:07;;;;;;;;;;;;;;;22.53;66.87;99957.63;5158249;27;2077;-91
2022/08/15 16:59:33;;;;;;;;;;;;;;;22.53;67.02;99963.94;5134565;27;1790;-92
2022/08/15 17:02:05;;;;;;;;;;;;;;;22.55;67.09;99977.34;5126940;27;1448894;-92
2022/08/15 17:04:32;;;;;;;;;;;;;;;22.55;66.93;99969.91;5147484;27;1366;-90
2022/08/15 17:07:14;;;;;;;;;;;;;;;22.56;66.94;99970.72;5130217;27;1411155;-90
2022/08/15 17:09:40;;;;;;;;;;;;;;;22.55;66.90;99964.41;5130818;28;2149;-89
2022/08/15 17:12:07;;;;;;;;;;;;;;;22.55;66.90;99958.13;5154395;27;2169;-91
2022/08/15 17:14:34;;;;;;;;;;;;;;;22.55;67.04;99950.69;5126032;27;1669;-90
2022/08/15 17:17:02;;;;;;;;;;;;;;;22.56;67.04;99944.09;5134919;27;2441;-91
2022/08/15 17:19:29;;;;;;;;;;;;;;;22.56;67.02;99954.25;5119791;27;2133;-91
2022/08/15 17:21:55;;;;;;;;;;;;;;;22.57;67.06;99967.66;5141091;27;1230;-92
2022/08/15 17:39:41;;;;;;;;;;;;;;;22.57;67.02;99972.34;5100754;27;1453914;-90
2022/08/15 17:42:07;;;;;;;;;;;;;;;22.58;67.02;99979.44;5092403;28;1278;-92
2022/08/15 17:44:51;;;;;;;;;;;;;;;22.58;67.04;99982.19;5126939;27;1277;-90
2022/08/15 17:57:08;;;;;;;;;;;;;;;22.57;67.09;99986.06;5011617;27;3895405;-92
2022/08/15 17:59:40;;;;;;;;;;;;;;;22.57;66.95;99989.63;5100979;27;1401951;-93
2022/08/15 18:03:23;;;;;;;;;;;;;;;22.58;66.90;99993.97;4958286;27;5397636;-92
2022/08/15 18:05:50;;;;;;;;;;;;;;;22.59;67.07;99992.03;5139163;28;1178;-91
2022/08/15 18:08:18;;;;;;;;;;;;;;;22.58;67.01;99993.97;5108226;28;1732;-92
2022/08/15 18:10:45;;;;;;;;;;;;;;;22.58;67.02;99996.72;5111290;28;1362;-91
2022/08/15 18:13:11;;;;;;;;;;;;;;;22.58;66.83;99998.66;5126931;28;1608;-92
2022/08/15 18:15:42;;;;;;;;;;;;;;;22.57;66.95;100003.34;5124278;28;1359;-92
2022/08/15 18:18:09;;;;;;;;;;;;;;;22.57;66.92;100000.59;5107815;28;1335;-91
2022/08/15 18:20:37;;;;;;;;;;;;;;;22.58;66.90;100004.94;5107460;28;1353;-92
2022/08/15 18:23:05;;;;;;;;;;;;;;;22.59;67.04;100008.50;5109291;28;1909;-93
2022/08/15 18:33:59;;;;;;;;;;;;;;;22.56;66.89;100017.34;5020842;27;3950648;-93
2022/08/15 18:36:26;;;;;;;;;;;;;;;22.56;67.04;100022.84;5113393;28;1780;-94
2022/08/15 18:41:05;;;;;;;;;;;;;;;22.56;66.99;100028.34;5104375;28;1820;-94
2022/08/15 18:43:18;;;;;;;;;;;;;;;22.56;66.97;100020.09;5071491;27;1471030;-91
2022/08/15 18:45:44;;;;;;;;;;;;;;;22.57;67.04;100024.47;5102693;28;1201;-92
2022/08/15 18:48:12;;;;;;;;;;;;;;;22.56;67.00;100022.84;5084817;28;1832;-92
2022/08/15 18:50:39;;;;;;;;;;;;;;;22.56;66.86;100020.94;5086241;28;1622;-91
2022/08/15 18:53:09;;;;;;;;;;;;;;;22.56;66.95;100020.09;5105177;28;1397;-92
2022/08/15 19:17:04;;;;;;;;;;;;;;;22.52;66.86;100030.91;5108405;27;1276;-92
2022/08/15 21:12:04;;;;;;;;;;;;;;;22.36;66.65;100052.41;5139762;27;1373;-91
2022/08/15 22:27:33;;;;;;;;;;;;;;;22.21;66.43;100055.53;5090002;27;1397483;-92
2022/08/15 22:32:08;;;;;;;;;;;;;;;22.21;66.39;100071.97;5122066;27;1338411;-90
2022/08/15 22:34:34;;;;;;;;;;;;;;;22.21;66.40;100064.56;5145099;27;3532;-91
2022/08/15 22:37:00;;;;;;;;;;;;;;;22.21;66.46;100061.00;5135791;27;2300;-90
2022/08/15 22:39:28;;;;;;;;;;;;;;;22.20;66.34;100062.09;5159198;27;2225;-91
2022/08/15 22:41:54;;;;;;;;;;;;;;;22.21;66.28;100064.56;5143682;27;1845;-90
2022/08/15 22:44:21;;;;;;;;;;;;;;;22.20;66.30;100064.84;5154356;27;1106;-91
